Flight Track Log - Related Links

Times and Time Zones

All times are in EDT time to prevent confusion due to time zone crossing. See the LOF3416 flight status page for this flight to view local times or setup timezone preferences in your user account.

Time Position Orientation Groundspeed Altitude Reporting Facility
EDT Latitude Longitude Course Direction KTS MPH feet Rate Location/Type
Thu 05:56:56 PM 41.9167 -87.9500 224° Southwest 173 199 3,600  Level Chicago TRACON
Thu 05:57:56 PM 41.8667 -88.0000 217° Southwest 225 259 4,800 650 Climbing Chicago TRACON
Thu 05:58:56 PM 41.8214 -88.0156 194° South 230 265 4,900 590 Climbing Chicago Center
Thu 05:59:58 PM 41.7503 -87.9661 153° Southeast 241 277 6,000 1,500 Climbing Chicago Center
Thu 06:01:00 PM 41.6833 -87.9294 158° South 264 304 8,000 1,935 Climbing Chicago Center
Thu 06:02:00 PM 41.5387 -88.4665 224° Southwest  Level Estimated
Thu 06:02:02 PM 41.6061 -87.9203 175° South 276 318 10,000  Level Chicago Center
Thu 06:03:04 PM 41.5447 -87.9794 216° Southwest 279 321 11,900 1,306 Climbing Chicago Center
Thu 06:04:06 PM 41.4714 -88.0308 208° Southwest 306 352 12,700 1,161 Climbing Chicago Center
Thu 06:05:08 PM 41.3753 -88.0850 203° Southwest 328 377 14,300 1,403 Climbing Chicago Center
Thu 06:06:10 PM 41.2919 -88.1311 203° Southwest 334 384 15,600 1,248 Climbing Chicago Center
Thu 06:07:13 PM 41.2056 -88.1797 203° Southwest 338 389 16,900 1,344 Climbing Chicago Center
Thu 06:08:15 PM 41.0992 -88.2386 203° Southwest 345 397 18,400 1,403 Climbing Chicago Center
Thu 06:09:17 PM 41.0119 -88.2869 203° Southwest 344 396 19,800 1,258 Climbing Chicago Center
Thu 06:10:19 PM 40.9219 -88.3361 202° Southwest 347 399 21,000 1,065 Climbing Chicago Center
Thu 06:11:21 PM 40.8300 -88.3867 203° Southwest 358 412 22,000 919 Climbing Chicago Center
Thu 06:12:23 PM 40.7353 -88.4386 203° Southwest 366 421 22,900 1,016 Climbing Chicago Center
Thu 06:13:25 PM 40.6197 -88.5022 203° Southwest 377 434 24,100 1,016 Climbing Chicago Center
Thu 06:14:27 PM 40.5222 -88.5561 203° Southwest 379 436 25,000 1,113 Climbing Chicago Center
Thu 06:15:29 PM 40.4322 -88.6036 202° Southwest 382 440 26,400 1,248 Climbing Chicago Center
Thu 06:16:32 PM 40.3386 -88.6544 202° Southwest 367 422 27,600 768 Climbing Chicago Center
Thu 06:17:34 PM 40.2444 -88.7603 221° Southwest 373 429 28,000 194 Climbing Chicago Center
Thu 06:18:36 PM 40.1647 -88.8614 224° Southwest 394 453 28,000  Level Chicago Center
Thu 06:19:38 PM 40.0825 -88.9667 224° Southwest 411 473 28,000  Level Chicago Center
Thu 06:20:40 PM 39.9978 -89.0747 224° Southwest 422 486 28,000  Level Chicago Center
Thu 06:21:23 PM 39.9275 -89.1608 223° Southwest 424 488 28,000  Level Kansas City Center
Thu 06:22:25 PM 39.8422 -89.2722 225° Southwest 430 495 28,000  Level Kansas City Center
Thu 06:23:26 PM 39.7683 -89.3983 233° Southwest 435 501 28,000  Level Kansas City Center
Thu 06:24:30 PM 39.6992 -89.5161 233° Southwest 439 505 28,000 240 Level Kansas City Center
Thu 06:25:31 PM 39.6092 -89.6664 232° Southwest 441 507 28,500 672 Climbing Kansas City Center
Thu 06:26:35 PM 39.5378 -89.7861 232° Southwest 430 495 29,400 720 Climbing Kansas City Center
Thu 06:27:36 PM 39.4672 -89.9014 232° Southwest 416 479 30,000 295 Climbing Kansas City Center
Thu 06:28:37 PM 39.3969 -90.0194 232° Southwest 415 478 30,000  Level Kansas City Center
Thu 06:29:41 PM 39.3236 -90.1400 232° Southwest 423 487 30,000  Level Kansas City Center
Thu 06:30:41 PM 39.2494 -90.2631 232° Southwest 432 497 30,000  Level Kansas City Center
Thu 06:31:45 PM 39.1603 -90.4097 232° Southwest 436 502 30,000  Level Kansas City Center
Thu 06:32:45 PM 39.0853 -90.5322 232° Southwest 439 505 30,000  Level Kansas City Center
Thu 06:33:47 PM 39.0106 -90.6550 232° Southwest 440 506 30,000  Level Kansas City Center
Thu 06:34:50 PM 38.9356 -90.7747 231° Southwest 437 503 30,000  Level Kansas City Center
Thu 06:35:52 PM 38.8442 -90.9222 232° Southwest 442 509 30,000  Level Kansas City Center
Thu 06:36:53 PM 38.7675 -91.0453 231° Southwest 444 511 30,000  Level Kansas City Center
Thu 06:37:57 PM 38.6911 -91.1681 231° Southwest 443 510 30,000  Level Kansas City Center
Thu 06:38:57 PM 38.6117 -91.2917 231° Southwest 448 516 30,000  Level Kansas City Center
Thu 06:40:01 PM 38.5386 -91.4153 233° Southwest 443 510 30,000  Level Kansas City Center
Thu 06:41:02 PM 38.4961 -91.6006 254° West 452 520 30,000 -639 Level Kansas City Center
Thu 06:42:03 PM 38.4589 -91.7508 252° West 450 518 28,700 -1,296 Descending Kansas City Center
Thu 06:43:07 PM 38.3908 -91.8783 236° Southwest 447 514 27,300 -1,403 Descending Kansas City Center
Thu 06:44:07 PM 38.3178 -92.0044 234° Southwest 443 510 25,800 -1,392 Descending Kansas City Center
Thu 06:45:12 PM 38.2422 -92.1281 232° Southwest 444 511 24,400 -1,714 Descending Kansas City Center
Thu 06:46:13 PM 38.1542 -92.2403 225° Southwest 449 517 22,200 -2,331 Descending Kansas City Center
Thu 06:47:13 PM 38.0656 -92.3517 225° Southwest 452 520 19,700 -2,565 Descending Kansas City Center
Thu 06:48:17 PM 37.9719 -92.4772 227° Southwest 423 487 16,900 -1,839 Descending Kansas City Center
Thu 06:49:17 PM 37.8936 -92.5739 224° Southwest 402 463 15,900 -435 Descending Kansas City Center
Thu 06:50:21 PM 37.8150 -92.6739 225° Southwest 400 460 16,000 -480 Climbing Kansas City Center
Thu 06:51:22 PM 37.7269 -92.7847 225° Southwest 396 456 14,900 -1,355 Descending Kansas City Center
Thu 06:52:25 PM 37.6553 -92.8744 225° Southwest 371 427 13,200 -1,659 Descending Kansas City Center
Thu 06:53:25 PM 37.5908 -92.9556 225° Southwest 343 395 11,500 -1,597 Descending Kansas City Center
Thu 06:54:29 PM 37.5311 -93.0297 225° Southwest 320 368 9,900 -1,632 Descending Kansas City Center
Thu 06:55:30 PM 37.4778 -93.0972 225° Southwest 294 338 8,100 -1,694 Descending Kansas City Center
Thu 06:56:33 PM 37.4242 -93.1647 225° Southwest 280 322 6,400 -1,902 Descending Kansas City Center
Thu 06:57:33 PM 37.3653 -93.2461 228° Southwest 268 308 4,200 -1,645 Descending Kansas City Center
Thu 06:58:37 PM 37.3369 -93.3278 246° West 259 298 3,000 -912 Descending Kansas City Center
Thu 06:59:38 PM 37.2947 -93.3572 209° Southwest 206 237 2,300 -689 Descending Kansas City Center
Thu 07:01:00 PM 37.2457 -93.3886 219° Southwest  Level Estimated
Thu 07:08:00 PM 37.2457 -93.3886 219° Southwest  Level Estimated
Thu 07:09:00 PM 37.2457 -93.3886 219° Southwest  Level Estimated
Thu 07:10:00 PM 37.2457 -93.3886 219° Southwest  Level Estimated

Login

Don't have an account? Register now (free) for customized features, flight alerts, and more!